ADDS METAR Data INFO
IDs: Format: Raw Decoded Include TAF

Data at: 1019 UTC 12 Dec 2017

KW75 121015Z AUTO 17009KT 10SM CLR 06/01 A2970 RMK AO1 T00550006
KW75 120955Z AUTO 18007KT 10SM SCT120 06/01 A2972 RMK AO1 T00550005
KW75 120935Z AUTO 17008KT 10SM SCT120 05/01 A2973 RMK AO1 T00530005
KW75 120915Z AUTO 18006KT 10SM CLR 05/01 A2975 RMK AO1 T00540005
KW75 120855Z AUTO 17008KT 10SM SCT120 05/01 A2976 RMK AO1 T00510007
KW75 120835Z AUTO 17007KT 10SM BKN120 05/01 A2978 RMK AO1 T00520007
KW75 120815Z AUTO 18005KT 10SM OVC120 05/01 A2980 RMK AO1 T00510008
KW75 120755Z AUTO 18006KT 10SM OVC120 05/01 A2981 RMK AO1 T00510011
KW75 120735Z AUTO 18005KT 10SM OVC110 05/01 A2983 RMK AO1 T00510012
KW75 120715Z AUTO 18004KT 10SM BKN120 05/02 A2984 RMK AO1 T00500015
KW75 120655Z AUTO 17004KT 10SM CLR 05/02 A2985 RMK AO1 T00490015
KW75 120635Z AUTO 18006KT 10SM CLR 05/02 A2985 RMK AO1 T00500017
KW75 120615Z AUTO 17006KT 10SM CLR 05/02 A2986 RMK AO1 T00520016
KW75 120555Z AUTO 16007KT 10SM CLR 05/02 A2987 RMK AO1 T00530015 10053 20020
KW75 120535Z AUTO 16007KT 10SM CLR 05/02 A2988 RMK AO1 T00510017
KW75 120515Z AUTO 15006KT 10SM CLR 05/02 A2990 RMK AO1 T00500016
KW75 120455Z AUTO 16006KT 10SM CLR 05/02 A2992 RMK AO1 T00460015 400861024
KW75 120435Z AUTO 16006KT 10SM SCT110 05/01 A2992 RMK AO1 T00460014
KW75 120415Z AUTO 17005KT 10SM BKN100 05/01 A2994 RMK AO1 T00460011
KW75 120355Z AUTO 16005KT 10SM SCT100 04/01 A2994 RMK AO1 T00390014
KW75 120335Z AUTO 16004KT 10SM CLR 03/01 A2995 RMK AO1 T00320010
KW75 120315Z AUTO 16003KT 10SM CLR 03/01 A2996 RMK AO1 T00320008
KW75 120255Z AUTO 00000KT 10SM CLR 03/00 A2997 RMK AO1 T00270001
KW75 120235Z AUTO 00000KT 10SM CLR 04/00 A2997 RMK AO1 T00370003
KW75 120215Z AUTO 14004KT 10SM CLR 04/00 A2996 RMK AO1 T00410002
KW75 120155Z AUTO 15005KT 10SM CLR 04/00 A2997 RMK AO1 T00400001
KW75 120135Z AUTO 15007KT 10SM CLR 04/00 A2998 RMK AO1 T00380000
KW75 120115Z AUTO 15004KT 10SM CLR 04/00 A3000 RMK AO1 T00361001
KW75 120055Z AUTO 15005KT 10SM CLR 04/00 A2999 RMK AO1 T00360000
KW75 120035Z AUTO 15005KT 10SM CLR 03/00 A2999 RMK AO1 T00340000
KW75 120015Z AUTO 16005KT 10SM CLR 03/00 A3000 RMK AO1 T00251001
KW75 112355Z AUTO 00000KT 10SM CLR 03/00 A3000 RMK AO1 T00280000 10086 20028
KW75 112335Z AUTO 16004KT 10SM CLR 03/00 A3000 RMK AO1 T00300000
KW75 112315Z AUTO 15003KT 10SM CLR 03/00 A3000 RMK AO1 T00310000
KW75 112255Z AUTO 15003KT 10SM CLR 04/00 A3000 RMK AO1 T00360002
KW75 112235Z AUTO 15004KT 10SM CLR 04/00 A3001 RMK AO1 T00390000
KW75 112215Z AUTO 15004KT 10SM CLR 04/00 A3002 RMK AO1 T00400000
KW75 112155Z AUTO 15005KT 10SM CLR 05/00 A3002 RMK AO1 T00460000
KW75 112135Z AUTO 12003KT 10SM CLR 06/00 A3003 RMK AO1 T00570000
KW75 112115Z AUTO 11005KT 10SM CLR 06/00 A3003 RMK AO1 T00610003
KW75 112055Z AUTO 11005KT 10SM CLR 07/00 A3003 RMK AO1 T00700002
KW75 112035Z AUTO 11006KT 10SM CLR 07/00 A3004 RMK AO1 T00720002
KW75 112015Z AUTO 11005KT 10SM CLR 07/00 A3003 RMK AO1 T00730001
KW75 111955Z AUTO 11006KT 10SM CLR 08/00 A3003 RMK AO1 T00750000
KW75 111935Z AUTO 10004KT 10SM CLR 08/M03 A3003 RMK AO1 T00841028
KW75 111915Z AUTO 11006KT 10SM CLR 08/M01 A3003 RMK AO1 T00801014
KW75 111855Z AUTO 00000KT 10SM CLR 08/M03 A3003 RMK AO1 T00831029
KW75 111835Z AUTO 00000KT 10SM CLR 08/M04 A3002 RMK AO1 T00781036
KW75 111815Z AUTO 36003KT 10SM CLR 08/M02 A3003 RMK AO1 T00761025
KW75 111755Z AUTO 02003KT 10SM CLR 07/M02 A3006 RMK AO1 T00691021 10069 21024
KW75 111735Z AUTO 34004KT 10SM CLR 07/M02 A3007 RMK AO1 T00661021
KW75 111715Z AUTO 35004KT 10SM CLR 06/M02 A3008 RMK AO1 T00611021
KW75 111655Z AUTO 34003KT 10SM CLR 06/M02 A3009 RMK AO1 T00571022
KW75 111635Z AUTO 32004KT 10SM CLR 05/M02 A3010 RMK AO1 T00501021
KW75 111615Z AUTO 33004KT 10SM CLR 05/M03 A3011 RMK AO1 T00451026
KW75 111555Z AUTO 33003KT 10SM CLR 04/M02 A3012 RMK AO1 T00411024
KW75 111535Z AUTO 31005KT 10SM CLR 04/M03 A3012 RMK AO1 T00381026
KW75 111515Z AUTO 00000KT 10SM CLR 03/M02 A3012 RMK AO1 T00341023
KW75 111455Z AUTO 00000KT 10SM CLR 03/M02 A3012 RMK AO1 T00311023
KW75 111435Z AUTO 32004KT 10SM CLR 03/M03 A3012 RMK AO1 T00271026
KW75 111415Z AUTO 00000KT 10SM CLR 02/M02 A3012 RMK AO1 T00221025
KW75 111355Z AUTO 26004KT 10SM CLR 02/M02 A3011 RMK AO1 T00151025
KW75 111335Z AUTO 00000KT 10SM CLR 01/M02 A3011 RMK AO1 T00061022
KW75 111315Z AUTO 00000KT 10SM CLR M01/M02 A3011 RMK AO1 T10111021
KW75 111255Z AUTO 00000KT 10SM CLR M02/M02 A3011 RMK AO1 T10191022
KW75 111235Z AUTO 00000KT 10SM CLR M02/M03 A3010 RMK AO1 T10231026
KW75 111215Z AUTO 00000KT 10SM CLR M02/M03 A3009 RMK AO1 T10221027
KW75 111155Z AUTO 00000KT 10SM CLR M01/M03 A3009 RMK AO1 T10151026 10021 21015
KW75 111135Z AUTO 28003KT 10SM CLR M01/M02 A3008 RMK AO1 T10151025
KW75 111115Z AUTO 00000KT 10SM CLR 00/M02 A3008 RMK AO1 T10041025
KW75 111055Z AUTO 00000KT 10SM CLR 00/M03 A3007 RMK AO1 T10011027
KW75 111035Z AUTO 00000KT 10SM CLR 00/M03 A3006 RMK AO1 T00031026
KW75 111015Z AUTO 00000KT 10SM CLR 01/M03 A3006 RMK AO1 T00081029
KW75 110955Z AUTO 00000KT 10SM CLR 01/M03 A3006 RMK AO1 T00121027
KW75 110935Z AUTO 00000KT 10SM SCT090 02/M03 A3005 RMK AO1 T00151027
KW75 110915Z AUTO 00000KT 10SM OVC090 02/M03 A3005 RMK AO1 T00161027
KW75 110855Z AUTO 26004KT 10SM OVC090 02/M03 A3005 RMK AO1 T00181026
KW75 110835Z AUTO 25005KT 10SM BKN090 02/M03 A3005 RMK AO1 T00201026
KW75 110815Z AUTO 22003KT 10SM BKN100 02/M02 A3005 RMK AO1 T00191025
KW75 110755Z AUTO 22004KT 10SM BKN100 02/M02 A3005 RMK AO1 T00201025
KW75 110735Z AUTO 22005KT 10SM BKN100 02/M02 A3006 RMK AO1 T00181025
KW75 110715Z AUTO 22005KT 10SM BKN100 02/M02 A3006 RMK AO1 T00171022
KW75 110655Z AUTO 21004KT 10SM BKN100 02/M02 A3007 RMK AO1 T00161022
KW75 110635Z AUTO 22004KT 10SM OVC100 02/M02 A3008 RMK AO1 T00211022
KW75 110615Z AUTO 21004KT 10SM OVC100 02/M02 A3008 RMK AO1 T00201020
KW75 110555Z AUTO 22005KT 10SM OVC100 02/M02 A3008 RMK AO1 T00181020 10020 21001
KW75 110535Z AUTO 20004KT 10SM OVC100 02/M02 A3008 RMK AO1 T00201021
KW75 110515Z AUTO 00000KT 10SM OVC100 02/M02 A3009 RMK AO1 T00181020
KW75 110455Z AUTO 21003KT 10SM OVC110 02/M02 A3010 RMK AO1 T00171020 400461006
KW75 110435Z AUTO 21005KT 10SM OVC110 02/M02 A3010 RMK AO1 T00161017
KW75 110415Z AUTO 20003KT 10SM OVC100 02/M02 A3011 RMK AO1 T00151016
KW75 110355Z AUTO 20004KT 10SM OVC100 02/M01 A3011 RMK AO1 T00151015
KW75 110335Z AUTO 21004KT 10SM OVC100 01/M01 A3012 RMK AO1 T00101015
KW75 110315Z AUTO 21005KT 10SM OVC100 01/M02 A3013 RMK AO1 T00061016
KW75 110255Z AUTO 20005KT 10SM BKN100 00/M02 A3012 RMK AO1 T00031018
KW75 110235Z AUTO 21004KT 10SM SCT100 00/M02 A3013 RMK AO1 T00011020
KW75 110215Z AUTO 21004KT 10SM CLR 00/M02 A3012 RMK AO1 T00011021
KW75 110155Z AUTO 21005KT 10SM CLR 00/M02 A3012 RMK AO1 T00011021
KW75 110135Z AUTO 21005KT 10SM CLR 00/M02 A3012 RMK AO1 T00001021
KW75 110115Z AUTO 20004KT 10SM CLR 00/M02 A3012 RMK AO1 T00001022
KW75 110055Z AUTO 20003KT 10SM CLR 00/M02 A3013 RMK AO1 T00011022
KW75 110035Z AUTO 20004KT 10SM CLR 00/M02 A3012 RMK AO1 T00021023
KW75 110015Z AUTO 21003KT 10SM CLR 00/M02 A3012 RMK AO1 T00011025
KW75 102355Z AUTO 20003KT 10SM CLR 00/M02 A3012 RMK AO1 T00001025 10046 21003
KW75 102335Z AUTO 00000KT 10SM CLR 00/M03 A3012 RMK AO1 T00001026
KW75 102315Z AUTO 21003KT 10SM CLR 00/M02 A3012 RMK AO1 T00001024
KW75 102255Z AUTO 00000KT 10SM CLR 00/M02 A3011 RMK AO1 T00001021
KW75 102235Z AUTO 00000KT 10SM CLR 01/M02 A3010 RMK AO1 T00051022